Time;durP1;ratioP1;P1;durP2;ratioP2;P2;SDS_P1;SDS_P2;PMS_P1;PMS_P2;Temp;Humidity;BMP_temperature;BMP_pressure;BME280_temperature;BME280_humidity;BME280_pressure;Samples;Min_cycle;Max_cycle;Signal;HPM_P1;HPM_P2
2023/06/11 00:02:24;;;;;;;48.88;43.28;;;;;;;14.72;100.00;100346.75;4994708;28;20470;-79
2023/06/11 00:04:54;;;;;;;46.63;41.88;;;;;;;14.55;100.00;100354.75;4994309;28;20526;-78
2023/06/11 00:07:21;;;;;;;51.50;46.30;;;;;;;14.55;100.00;100350.19;4994877;28;20054;-79
2023/06/11 00:09:47;;;;;;;49.88;44.67;;;;;;;14.09;100.00;100349.34;4994745;28;20135;-78
2023/06/11 00:12:14;;;;;;;45.17;40.65;;;;;;;14.74;100.00;100348.13;4994253;28;20082;-78
2023/06/11 00:14:41;;;;;;;43.67;39.38;;;;;;;14.77;100.00;100355.69;4994652;28;20490;-78
2023/06/11 00:17:08;;;;;;;45.75;41.10;;;;;;;14.83;100.00;100351.22;4995155;28;20141;-78
2023/06/11 00:19:35;;;;;;;46.78;41.95;;;;;;;14.56;100.00;100346.50;5012798;28;20050;-78
2023/06/11 00:22:05;;;;;;;45.40;39.95;;;;;;;14.36;100.00;100348.78;5000705;28;20046;-78
2023/06/11 00:24:31;;;;;;;44.05;39.42;;;;;;;14.03;100.00;100352.97;5010740;28;20049;-78
2023/06/11 00:27:01;;;;;;;46.20;41.28;;;;;;;14.61;100.00;100343.09;5008241;28;20061;-78
2023/06/11 00:29:28;;;;;;;42.70;38.50;;;;;;;14.55;100.00;100346.72;5013684;28;20445;-78
2023/06/11 00:31:55;;;;;;;45.35;40.83;;;;;;;14.72;100.00;100349.44;5001757;28;20112;-78
2023/06/11 00:34:22;;;;;;;45.95;41.28;;;;;;;14.51;100.00;100345.56;4993718;28;20071;-78
2023/06/11 00:36:49;;;;;;;47.03;42.08;;;;;;;14.43;100.00;100362.78;5006153;28;20053;-78
2023/06/11 00:39:17;;;;;;;43.92;39.40;;;;;;;14.47;100.00;100355.94;5009613;28;20434;-78
2023/06/11 00:41:48;;;;;;;49.45;44.92;;;;;;;14.38;100.00;100349.34;4998478;28;20085;-79
2023/06/11 00:44:17;;;;;;;43.40;39.03;;;;;;;13.74;100.00;100362.81;4993764;28;20081;-78
2023/06/11 00:46:47;;;;;;;48.25;43.42;;;;;;;14.28;100.00;100370.53;4998254;28;20053;-78
2023/06/11 00:49:19;;;;;;;49.13;43.88;;;;;;;13.67;100.00;100372.78;4996147;28;20054;-78
2023/06/11 00:51:46;;;;;;;;;;;;;;;13.74;100.00;100376.97;4998558;28;20046;-78
2023/06/11 00:54:16;;;;;;;49.25;44.30;;;;;;;14.11;100.00;100381.16;4992918;28;20283;-78
2023/06/11 00:56:44;;;;;;;53.00;47.50;;;;;;;13.96;100.00;100381.66;5004297;28;20054;-78
2023/06/11 00:59:13;;;;;;;47.15;42.30;;;;;;;14.33;100.00;100389.31;5009679;28;20049;-78
2023/06/11 01:01:48;;;;;;;46.83;41.90;;;;;;;14.34;100.00;100386.44;5013104;28;20049;-83
2023/06/11 01:04:18;;;;;;;48.45;43.65;;;;;;;14.38;100.00;100392.91;5010905;28;20045;-83
2023/06/11 01:06:49;;;;;;;45.25;40.58;;;;;;;14.29;100.00;100391.66;5010333;28;20054;-84
2023/06/11 01:09:20;;;;;;;49.95;44.80;;;;;;;14.32;100.00;100401.06;5011511;28;20081;-84
2023/06/11 01:11:53;;;;;;;48.67;43.72;;;;;;;13.38;100.00;100395.91;5010943;28;21196;-83
2023/06/11 01:14:20;;;;;;;48.70;43.72;;;;;;;13.77;100.00;100398.88;4994043;28;20050;-83
2023/06/11 01:16:52;;;;;;;48.03;42.20;;;;;;;14.01;100.00;100404.97;4993781;28;20054;-83
2023/06/11 01:19:56;;;;;;;47.55;42.80;;;;;;;13.77;100.00;100404.19;4994317;28;20077;-83
2023/06/11 01:22:33;;;;;;;49.15;43.95;;;;;;;13.83;100.00;100409.44;4993424;28;20042;-78
2023/06/11 01:25:25;;;;;;;47.03;42.13;;;;;;;14.03;100.00;100408.22;4995926;28;20105;-83
2023/06/11 01:28:02;;;;;;;45.90;40.97;;;;;;;14.12;100.00;100406.81;5012435;28;20069;-78
2023/06/11 01:30:30;;;;;;;49.78;44.67;;;;;;;14.29;100.00;100409.56;5005903;28;20050;-78
2023/06/11 01:33:00;;;;;;;46.88;41.92;;;;;;;13.92;100.00;100413.38;5011903;28;20045;-83
2023/06/11 01:35:27;;;;;;;46.72;40.95;;;;;;;13.71;100.00;100416.66;5012543;28;20050;-83
2023/06/11 01:37:58;;;;;;;46.70;41.60;;;;;;;13.41;100.00;100414.09;4996268;28;20116;-78
2023/06/11 01:40:26;;;;;;;47.15;42.20;;;;;;;13.62;100.00;100407.38;5011427;28;20132;-84
2023/06/11 01:42:53;;;;;;;50.75;45.55;;;;;;;14.12;100.00;100412.97;5010555;28;20085;-83
2023/06/11 01:45:22;;;;;;;45.78;40.92;;;;;;;13.59;100.00;100410.50;5012224;28;20042;-83
2023/06/11 01:48:05;;;;;;;46.28;41.83;;;;;;;13.65;100.00;100418.41;5010691;28;20042;-83
2023/06/11 01:50:33;;;;;;;51.83;46.38;;;;;;;13.81;100.00;100411.53;5011502;28;20502;-83
2023/06/11 01:53:00;;;;;;;53.30;47.78;;;;;;;13.98;100.00;100416.97;5011589;28;20127;-83
2023/06/11 01:55:27;;;;;;;49.00;44.10;;;;;;;14.13;100.00;100414.59;5011301;28;20077;-78
2023/06/11 01:57:54;;;;;;;54.22;49.08;;;;;;;14.01;100.00;100415.66;5011563;28;20421;-78
2023/06/11 02:00:23;;;;;;;52.63;47.63;;;;;;;14.05;100.00;100425.63;5011988;28;20057;-78
2023/06/11 02:02:50;;;;;;;45.17;40.67;;;;;;;13.69;100.00;100422.22;4994852;28;20046;-78
2023/06/11 02:05:17;;;;;;;52.22;47.20;;;;;;;13.44;100.00;100426.97;4991996;28;20055;-77
2023/06/11 02:07:45;;;;;;;44.88;40.03;;;;;;;13.40;100.00;100420.47;4992537;28;20043;-78
2023/06/11 02:10:12;;;;;;;49.22;44.53;;;;;;;13.85;100.00;100423.34;4992824;28;20050;-78
2023/06/11 02:12:39;;;;;;;47.20;42.22;;;;;;;13.82;100.00;100413.13;4992302;28;20049;-78
2023/06/11 02:15:07;;;;;;;47.70;42.90;;;;;;;13.70;100.00;100421.16;4992196;28;20060;-78
2023/06/11 02:17:35;;;;;;;54.08;48.72;;;;;;;13.90;100.00;100428.81;5010623;28;20069;-78
2023/06/11 02:20:05;;;;;;;51.67;46.58;;;;;;;13.78;100.00;100433.34;4994389;28;20054;-78
2023/06/11 02:22:32;;;;;;;63.22;57.25;;;;;;;13.67;100.00;100428.81;4991794;28;20050;-78
2023/06/11 02:24:59;;;;;;;51.83;46.45;;;;;;;13.65;100.00;100428.25;5004335;28;20411;-78
2023/06/11 02:27:26;;;;;;;46.45;41.85;;;;;;;13.81;100.00;100432.88;5011856;28;20049;-78
2023/06/11 02:29:55;;;;;;;45.17;40.38;;;;;;;13.87;100.00;100434.59;4992770;28;20057;-78
2023/06/11 02:32:21;;;;;;;45.17;40.35;;;;;;;13.92;100.00;100441.94;5002410;28;20449;-78
2023/06/11 02:34:50;;;;;;;40.55;35.78;;;;;;;13.44;100.00;100440.31;5009603;28;20057;-83
2023/06/11 02:37:17;;;;;;;45.35;37.50;;;;;;;13.53;100.00;100441.59;5009008;28;20045;-77
2023/06/11 02:39:44;;;;;;;42.25;38.05;;;;;;;13.23;100.00;100445.13;5010546;28;20403;-78
2023/06/11 02:42:11;;;;;;;41.70;37.35;;;;;;;13.44;100.00;100438.47;5009614;28;20050;-77
2023/06/11 02:44:38;;;;;;;41.05;36.97;;;;;;;13.36;100.00;100449.47;5008626;28;20053;-78
2023/06/11 02:47:05;;;;;;;43.53;37.28;;;;;;;13.74;100.00;100450.88;5010860;28;20042;-78
2023/06/11 02:49:32;;;;;;;41.85;37.63;;;;;;;13.73;100.00;100455.38;5010501;28;20053;-78
2023/06/11 02:52:00;;;;;;;41.78;37.58;;;;;;;13.83;100.00;100456.66;5010798;28;20061;-78
2023/06/11 02:54:27;;;;;;;41.25;37.10;;;;;;;13.88;100.00;100457.56;5008964;28;20100;-78
2023/06/11 02:56:54;;;;;;;41.65;36.70;;;;;;;14.09;100.00;100471.38;5007668;28;20050;-78
2023/06/11 02:59:20;;;;;;;44.17;39.58;;;;;;;14.33;100.00;100486.31;5006845;28;20050;-78
2023/06/11 03:01:47;;;;;;;43.78;39.28;;;;;;;14.07;100.00;100486.81;4994566;28;20054;-83
2023/06/11 03:04:14;;;;;;;46.28;41.72;;;;;;;14.02;100.00;100484.84;4991211;28;20046;-78
2023/06/11 03:06:41;;;;;;;46.45;41.90;;;;;;;14.42;100.00;100466.19;5005250;28;20798;-78
2023/06/11 03:09:10;;;;;;;46.40;42.03;;;;;;;14.72;100.00;100489.22;4991583;28;20529;-83
2023/06/11 03:11:36;;;;;;;46.05;41.30;;;;;;;14.92;100.00;100488.81;4992160;28;20050;-77
2023/06/11 03:14:04;;;;;;;48.65;44.25;;;;;;;14.49;100.00;100475.91;4991530;28;20555;-78
2023/06/11 03:16:32;;;;;;;50.17;45.25;;;;;;;14.69;100.00;100479.03;4990842;28;20062;-78
2023/06/11 03:19:06;;;;;;;46.47;42.33;;;;;;;14.54;100.00;100484.88;5002346;28;20437;-78
2023/06/11 03:21:33;;;;;;;45.47;41.17;;;;;;;14.64;100.00;100486.94;5004244;28;20050;-78
2023/06/11 03:24:00;;;;;;;43.25;39.17;;;;;;;14.69;100.00;100488.91;4991079;28;20468;-78
2023/06/11 03:26:28;;;;;;;47.80;42.88;;;;;;;14.57;100.00;100496.97;4997144;28;20046;-78
2023/06/11 03:28:55;;;;;;;44.45;40.00;;;;;;;14.62;100.00;100505.91;5000927;28;20054;-78
2023/06/11 03:31:22;;;;;;;41.17;37.08;;;;;;;14.62;100.00;100497.88;4991154;28;20054;-78
2023/06/11 03:33:49;;;;;;;50.47;45.78;;;;;;;14.61;100.00;100488.25;4992014;28;20482;-77
2023/06/11 03:36:16;;;;;;;44.42;39.83;;;;;;;14.26;100.00;100493.66;4991216;28;20057;-78
2023/06/11 03:38:43;;;;;;;41.97;37.78;;;;;;;14.36;100.00;100501.06;5009209;28;20057;-77
2023/06/11 03:41:11;;;;;;;44.22;40.08;;;;;;;14.14;100.00;100485.66;4993669;28;20047;-78
2023/06/11 03:43:39;;;;;;;43.20;38.92;;;;;;;14.31;100.00;100507.13;4998519;28;20110;-78
2023/06/11 03:46:06;;;;;;;43.20;39.13;;;;;;;13.97;100.00;100501.56;4996604;28;20054;-83
2023/06/11 03:48:33;;;;;;;52.28;47.10;;;;;;;13.68;100.00;100484.66;4991768;28;20050;-83
2023/06/11 03:51:00;;;;;;;46.67;42.08;;;;;;;14.03;100.00;100475.78;4991497;28;20058;-83
2023/06/11 03:53:26;;;;;;;45.80;41.20;;;;;;;14.44;100.00;100484.66;4991630;28;20046;-83
2023/06/11 03:55:53;;;;;;;44.97;40.78;;;;;;;14.75;100.00;100490.63;4996926;28;20057;-78
2023/06/11 03:58:21;;;;;;;42.90;38.75;;;;;;;14.91;100.00;100478.34;5007601;28;20038;-78
2023/06/11 04:00:49;;;;;;;44.95;40.47;;;;;;;14.89;100.00;100481.28;5010616;28;20050;-78
2023/06/11 04:03:16;;;;;;;42.92;39.20;;;;;;;14.95;100.00;100487.50;5008967;28;20046;-78
2023/06/11 04:05:43;;;;;;;44.58;40.38;;;;;;;15.11;100.00;100476.84;5007195;28;20526;-83
2023/06/11 04:08:10;;;;;;;45.03;40.85;;;;;;;15.09;100.00;100486.16;5009076;28;20521;-83
2023/06/11 04:10:37;;;;;;;45.15;40.92;;;;;;;15.37;100.00;100481.78;5009403;28;20092;-83
2023/06/11 04:13:04;;;;;;;44.95;40.72;;;;;;;15.44;100.00;100474.44;5008410;28;20041;-83
2023/06/11 04:15:32;;;;;;;47.95;43.65;;;;;;;15.72;100.00;100469.00;5010196;28;20050;-84
2023/06/11 04:18:00;;;;;;;49.05;44.13;;;;;;;15.74;100.00;100463.41;5009858;28;20629;-83
2023/06/11 04:20:27;;;;;;;55.08;50.00;;;;;;;15.84;100.00;100468.09;5009458;28;20407;-84
2023/06/11 04:22:54;;;;;;;53.90;49.08;;;;;;;16.23;100.00;100466.19;5010206;28;20057;-84
2023/06/11 04:25:21;;;;;;;56.08;51.03;;;;;;;16.58;100.00;100479.22;5006509;28;20485;-84
2023/06/11 04:27:49;;;;;;;53.67;48.83;;;;;;;16.55;100.00;100482.41;5009995;28;20054;-78
2023/06/11 04:30:16;;;;;;;54.10;48.78;;;;;;;16.67;100.00;100477.69;5012912;28;20103;-78
2023/06/11 04:32:43;;;;;;;52.67;48.17;;;;;;;16.92;100.00;100490.59;5013092;28;20046;-78
2023/06/11 04:35:11;;;;;;;53.13;48.45;;;;;;;17.28;100.00;100498.97;5007795;28;20051;-78
2023/06/11 04:37:40;;;;;;;53.60;48.67;;;;;;;17.33;100.00;100490.13;5012993;28;20046;-78
2023/06/11 04:40:10;;;;;;;55.28;50.30;;;;;;;17.48;100.00;100484.06;5010956;28;20514;-84
2023/06/11 04:42:40;;;;;;;54.28;49.35;;;;;;;17.37;100.00;100488.56;5012982;28;20115;-78
2023/06/11 04:45:09;;;;;;;55.60;50.53;;;;;;;17.53;100.00;100492.97;5012201;28;20678;-78
2023/06/11 04:47:36;;;;;;;55.25;50.08;;;;;;;17.67;100.00;100489.84;5010508;28;20080;-78
2023/06/11 04:50:20;;;;;;;57.53;52.58;;;;;;;17.91;100.00;100501.03;5011551;28;20057;-78
2023/06/11 04:52:49;;;;;;;59.55;54.15;;;;;;;18.04;100.00;100504.09;5009890;28;20430;-78
2023/06/11 04:55:16;;;;;;;56.53;51.47;;;;;;;18.40;100.00;100500.78;5011086;28;20140;-78
2023/06/11 04:57:43;;;;;;;63.15;57.22;;;;;;;18.72;100.00;100498.69;5012352;28;20050;-77
2023/06/11 05:00:11;;;;;;;65.28;59.50;;;;;;;18.50;100.00;100500.78;5011676;28;20045;-78
2023/06/11 05:02:38;;;;;;;64.53;58.72;;;;;;;18.92;100.00;100506.06;5010726;28;20046;-84
2023/06/11 05:05:06;;;;;;;61.58;56.33;;;;;;;19.41;100.00;100502.84;5011354;28;20073;-85
2023/06/11 05:07:34;;;;;;;55.10;50.42;;;;;;;19.28;100.00;100513.38;5010125;28;20046;-84
2023/06/11 05:10:01;;;;;;;57.47;52.17;;;;;;;19.41;100.00;100513.63;5012731;28;20046;-85
2023/06/11 05:12:28;;;;;;;51.45;46.72;;;;;;;19.70;100.00;100528.44;5011013;28;20133;-84
2023/06/11 05:14:55;;;;;;;52.17;47.35;;;;;;;20.05;100.00;100527.59;5013012;28;20050;-84
2023/06/11 05:17:22;;;;;;;46.22;41.83;;;;;;;20.01;100.00;100526.53;5012488;28;20429;-84
2023/06/11 05:19:49;;;;;;;45.22;41.15;;;;;;;19.83;100.00;100539.50;5012231;28;20493;-84
2023/06/11 05:22:16;;;;;;;47.80;43.30;;;;;;;19.35;100.00;100535.44;5011475;28;20053;-78
2023/06/11 05:24:44;;;;;;;52.83;48.13;;;;;;;19.38;100.00;100516.06;5009860;28;20057;-78
2023/06/11 05:27:12;;;;;;;49.67;45.38;;;;;;;19.28;100.00;100533.03;5012931;28;20050;-78
2023/06/11 05:29:46;;;;;;;63.33;57.42;;;;;;;18.91;100.00;100519.75;4995638;28;20046;-78
2023/06/11 05:32:14;;;;;;;58.47;53.15;;;;;;;18.89;100.00;100520.03;4996358;28;20050;-78
2023/06/11 05:34:41;;;;;;;57.20;51.97;;;;;;;18.74;100.00;100523.50;4993081;28;20507;-78
2023/06/11 05:37:08;;;;;;;52.55;47.67;;;;;;;19.27;100.00;100519.81;4992830;28;20104;-79
2023/06/11 05:39:35;;;;;;;51.88;47.28;;;;;;;19.71;100.00;100514.72;4996729;28;20054;-78
2023/06/11 05:42:03;;;;;;;49.95;45.50;;;;;;;19.84;100.00;100516.84;5007202;28;20088;-78
2023/06/11 05:44:30;;;;;;;45.80;41.67;;;;;;;19.70;100.00;100514.97;5011391;28;20057;-77
2023/06/11 05:46:57;;;;;;;41.88;38.15;;;;;;;19.99;100.00;100521.41;4992789;28;20073;-78
2023/06/11 05:49:24;;;;;;;45.00;40.83;;;;;;;20.08;100.00;100508.97;4993003;28;20057;-84
2023/06/11 05:51:51;;;;;;;41.03;37.42;;;;;;;20.33;100.00;100516.19;4993244;28;20054;-85
2023/06/11 05:54:17;;;;;;;42.72;38.70;;;;;;;20.49;100.00;100508.84;4993143;28;20511;-84
2023/06/11 05:56:45;;;;;;;41.65;37.78;;;;;;;20.22;100.00;100516.50;5002666;28;20046;-78
2023/06/11 05:59:13;;;;;;;36.33;33.08;;;;;;;20.60;100.00;100515.00;5008979;28;20355;-78
2023/06/11 06:01:49;;;;;;;35.88;32.63;;;;;;;20.51;100.00;100516.63;5004394;28;20066;-79
2023/06/11 06:04:16;;;;;;;39.17;35.33;;;;;;;20.51;100.00;100512.03;4996107;28;20046;-78
2023/06/11 06:06:43;;;;;;;39.17;35.40;;;;;;;20.64;100.00;100517.97;4999328;28;20844;-78
2023/06/11 06:09:11;;;;;;;37.22;33.28;;;;;;;20.79;100.00;100513.31;5002866;28;20107;-78
2023/06/11 06:11:39;;;;;;;33.92;30.73;;;;;;;20.89;100.00;100507.03;5000648;28;20050;-78
2023/06/11 06:14:18;;;;;;;34.50;30.88;;;;;;;21.07;100.00;100520.97;5008613;28;20046;-78
2023/06/11 06:16:45;;;;;;;32.88;29.80;;;;;;;21.19;100.00;100510.63;5001547;28;20065;-78
2023/06/11 06:19:13;;;;;;;32.72;29.52;;;;;;;21.17;100.00;100507.38;4996371;28;20046;-78
2023/06/11 06:21:39;;;;;;;32.58;29.25;;;;;;;21.22;100.00;100512.75;5008714;28;20038;-78
2023/06/11 06:24:18;;;;;;;30.85;27.90;;;;;;;21.60;100.00;100502.97;4997975;28;20434;-79
2023/06/11 06:26:45;;;;;;;31.10;27.88;;;;;;;21.56;100.00;100501.16;4992906;28;20046;-84
2023/06/11 06:29:13;;;;;;;32.47;27.25;;;;;;;21.92;100.00;100504.31;4997409;28;20054;-84
2023/06/11 06:31:41;;;;;;;31.70;28.77;;;;;;;22.20;100.00;100507.28;5008359;28;20775;-84
2023/06/11 06:34:09;;;;;;;30.95;27.95;;;;;;;22.36;100.00;100505.97;5009903;28;20054;-78
2023/06/11 06:36:37;;;;;;;29.48;26.73;;;;;;;22.69;100.00;100504.19;5008943;28;20054;-79
2023/06/11 06:39:04;;;;;;;30.58;27.20;;;;;;;22.03;100.00;100500.41;5010887;28;20501;-78
2023/06/11 06:41:32;;;;;;;29.88;27.10;;;;;;;22.42;100.00;100504.81;5009082;28;20106;-79
2023/06/11 06:44:11;;;;;;;27.92;25.20;;;;;;;22.50;100.00;100498.78;5008461;28;20038;-78
2023/06/11 06:46:38;;;;;;;58.45;28.83;;;;;;;22.71;100.00;100504.72;5009230;28;20046;-78
2023/06/11 06:49:07;;;;;;;27.27;24.35;;;;;;;22.34;100.00;100502.78;5010253;28;20045;-78
2023/06/11 06:51:33;;;;;;;29.70;26.63;;;;;;;22.63;100.00;100502.66;5008403;28;20058;-78
2023/06/11 06:54:13;;;;;;;28.58;26.13;;;;;;;22.62;100.00;100503.75;5010002;28;20053;-78
2023/06/11 06:56:39;;;;;;;28.20;25.58;;;;;;;23.18;100.00;100499.44;5010675;28;20045;-78
2023/06/11 06:59:09;;;;;;;28.00;25.38;;;;;;;23.19;100.00;100496.47;5010043;28;20573;-79
2023/06/11 07:01:35;;;;;;;29.08;25.90;;;;;;;22.85;100.00;100500.19;5009270;28;20057;-79
2023/06/11 07:04:02;;;;;;;28.17;25.67;;;;;;;22.74;100.00;100498.72;5008588;28;20056;-78
2023/06/11 07:06:30;;;;;;;27.83;25.30;;;;;;;23.22;100.00;100489.66;5009562;28;20049;-85
2023/06/11 07:09:04;;;;;;;30.05;26.80;;;;;;;23.35;100.00;100496.19;5010402;28;20045;-85
2023/06/11 07:11:31;;;;;;;25.30;23.00;;;;;;;23.13;100.00;100489.50;5008719;28;20752;-84
2023/06/11 07:14:02;;;;;;;28.95;26.10;;;;;;;23.45;100.00;100496.03;5010292;28;20520;-85
2023/06/11 07:16:29;;;;;;;27.40;24.40;;;;;;;22.93;100.00;100493.28;5006808;28;20049;-85
2023/06/11 07:18:56;;;;;;;27.90;25.30;;;;;;;23.13;100.00;100488.72;5005492;28;20057;-85
2023/06/11 07:21:23;;;;;;;27.52;24.67;;;;;;;23.44;100.00;100492.50;5006933;28;20053;-84
2023/06/11 07:23:51;;;;;;;26.70;23.98;;;;;;;23.25;100.00;100489.06;4313875;28;10000718;-85
2023/06/11 07:26:18;;;;;;;24.40;22.00;;;;;;;23.82;100.00;100488.91;5004746;28;20043;-86
2023/06/11 07:28:45;;;;;;;24.90;22.45;;;;;;;23.83;100.00;100487.78;5002942;28;20054;-85
2023/06/11 07:31:12;;;;;;;47.90;32.35;;;;;;;24.15;100.00;100484.19;5006025;28;20053;-84
2023/06/11 07:33:41;;;;;;;25.30;22.83;;;;;;;24.61;100.00;100473.19;5006813;28;20046;-85
2023/06/11 07:36:09;;;;;;;25.08;22.33;;;;;;;24.83;100.00;100485.19;5001505;28;20046;-84
2023/06/11 07:38:36;;;;;;;26.13;22.92;;;;;;;24.63;100.00;100470.16;5005018;28;20060;-84
2023/06/11 07:41:04;;;;;;;24.67;22.23;;;;;;;24.90;100.00;100483.66;5004496;28;20053;-86
2023/06/11 07:43:31;;;;;;;24.08;21.48;;;;;;;25.30;100.00;100480.31;5000832;28;20058;-85
2023/06/11 07:45:58;;;;;;;24.73;22.65;;;;;;;25.31;100.00;100488.13;5001736;28;20048;-84
2023/06/11 07:48:32;;;;;;;28.90;22.50;;;;;;;25.48;100.00;100481.22;4995628;28;20057;-84
2023/06/11 07:50:59;;;;;;;23.65;21.20;;;;;;;25.22;100.00;100473.69;5001734;28;20050;-85
2023/06/11 07:53:26;;;;;;;23.30;21.05;;;;;;;25.53;100.00;100475.63;4994167;28;20130;-84
2023/06/11 07:55:56;;;;;;;26.42;22.42;;;;;;;25.30;100.00;100485.72;5001521;28;20116;-85
2023/06/11 07:58:25;;;;;;;24.92;22.38;;;;;;;25.46;100.00;100478.78;4997959;28;20050;-85
2023/06/11 08:00:52;;;;;;;25.08;21.88;;;;;;;25.66;100.00;100472.03;5003160;28;20060;-85
2023/06/11 08:03:19;;;;;;;24.80;21.90;;;;;;;25.56;100.00;100472.28;4997082;28;20054;-85
2023/06/11 08:05:46;;;;;;;24.70;22.23;;;;;;;26.00;100.00;100481.47;5008438;28;20060;-79
2023/06/11 08:08:13;;;;;;;23.48;21.00;;;;;;;25.96;100.00;100484.00;5005582;28;20050;-78
2023/06/11 08:10:40;;;;;;;23.85;21.05;;;;;;;26.23;100.00;100484.88;5006946;28;20064;-79
2023/06/11 08:13:07;;;;;;;25.58;22.75;;;;;;;25.80;100.00;100478.13;5002348;28;20050;-78
2023/06/11 08:15:37;;;;;;;25.63;23.05;;;;;;;25.78;100.00;100482.28;5001727;28;20415;-78
2023/06/11 08:18:12;;;;;;;24.98;22.42;;;;;;;26.20;100.00;100480.88;5006442;28;20148;-85
2023/06/11 08:20:39;;;;;;;24.10;22.10;;;;;;;26.10;100.00;100480.38;5004553;28;20053;-78
2023/06/11 08:23:06;;;;;;;23.73;21.40;;;;;;;26.21;100.00;100477.03;5004916;28;20054;-78
2023/06/11 08:25:36;;;;;;;23.50;21.13;;;;;;;26.03;100.00;100483.56;5004784;28;20061;-85
2023/06/11 08:28:03;;;;;;;23.75;21.45;;;;;;;26.28;100.00;100480.09;5002746;28;20054;-85
2023/06/11 08:30:30;;;;;;;24.00;21.73;;;;;;;26.44;100.00;100474.19;4997885;28;20046;-85
2023/06/11 08:32:58;;;;;;;25.80;23.60;;;;;;;26.15;100.00;100472.06;5007826;28;20466;-85
2023/06/11 08:35:25;;;;;;;24.10;21.42;;;;;;;26.43;100.00;100467.94;5001248;28;20037;-79
2023/06/11 08:37:51;;;;;;;22.73;20.30;;;;;;;26.87;100.00;100470.72;5004906;28;20442;-78
2023/06/11 08:40:19;;;;;;;23.15;21.08;;;;;;;26.73;100.00;100470.88;5004001;28;20399;-78
2023/06/11 08:42:48;;;;;;;23.60;20.85;;;;;;;26.48;100.00;100469.72;4999586;28;20049;-78
2023/06/11 08:45:15;;;;;;;21.98;20.17;;;;;;;26.46;100.00;100459.13;5006684;28;20094;-78
2023/06/11 08:47:49;;;;;;;24.00;21.30;;;;;;;26.48;100.00;100461.56;5008100;28;20064;-78
2023/06/11 08:50:21;;;;;;;23.98;21.88;;;;;;;26.47;100.00;100463.44;5006899;28;20852;-79
2023/06/11 08:52:51;;;;;;;24.95;22.83;;;;;;;26.67;100.00;100462.06;5010273;28;20049;-78
2023/06/11 08:55:18;;;;;;;24.67;22.48;;;;;;;27.30;100.00;100467.97;5003369;28;20148;-78
2023/06/11 08:57:45;;;;;;;24.33;22.08;;;;;;;27.18;100.00;100465.91;5006513;28;20326;-87
2023/06/11 09:00:14;;;;;;;24.13;21.55;;;;;;;26.40;100.00;100457.69;5012933;28;20476;-86
2023/06/11 09:02:41;;;;;;;23.55;21.20;;;;;;;26.81;100.00;100467.38;5010807;28;20127;-86
2023/06/11 09:05:10;;;;;;;24.20;21.77;;;;;;;27.00;100.00;100467.03;5013143;28;20064;-85
2023/06/11 09:07:39;;;;;;;24.10;21.85;;;;;;;27.44;100.00;100467.75;4994269;28;20060;-85
2023/06/11 09:10:07;;;;;;;24.45;21.88;;;;;;;27.39;100.00;100470.69;5012252;28;20050;-86
2023/06/11 09:12:34;;;;;;;22.98;20.98;;;;;;;26.94;100.00;100458.22;5002484;28;20057;-86
2023/06/11 09:15:02;;;;;;;24.00;21.95;;;;;;;26.48;100.00;100451.47;5007365;28;20049;-86
2023/06/11 09:17:35;;;;;;;24.45;21.92;;;;;;;27.39;100.00;100468.75;5007529;28;20133;-86
2023/06/11 09:20:06;;;;;;;25.23;22.77;;;;;;;27.40;100.00;100448.53;5009033;28;20398;-85
2023/06/11 09:22:34;;;;;;;24.92;22.40;;;;;;;27.43;100.00;100452.53;5008137;28;20053;-85
2023/06/11 09:25:05;;;;;;;23.98;21.70;;;;;;;27.75;100.00;100456.59;4995679;28;20050;-86
2023/06/11 09:27:32;;;;;;;23.05;20.90;;;;;;;27.24;100.00;100442.00;5011592;28;20080;-86
2023/06/11 09:30:10;;;;;;;22.50;20.48;;;;;;;27.76;100.00;100441.81;5009395;28;20050;-87
2023/06/11 09:32:40;;;;;;;24.10;21.88;;;;;;;28.12;100.00;100435.06;5006617;28;20054;-86
2023/06/11 09:35:09;;;;;;;24.67;22.52;;;;;;;27.23;100.00;100442.31;5003690;28;20042;-86
2023/06/11 09:37:45;;;;;;;24.00;21.63;;;;;;;27.31;100.00;100442.28;5008446;28;20049;-86
2023/06/11 09:40:17;;;;;;;23.77;21.58;;;;;;;28.86;100.00;100433.53;5005259;28;20461;-78
2023/06/11 09:42:45;;;;;;;24.50;21.50;;;;;;;28.06;100.00;100436.41;5003002;28;20061;-79
2023/06/11 09:45:16;;;;;;;23.73;21.75;;;;;;;28.57;100.00;100429.00;5011073;28;20136;-88
2023/06/11 09:47:44;;;;;;;23.90;21.60;;;;;;;27.95;100.00;100435.97;5002169;28;20133;-85
2023/06/11 09:50:13;;;;;;;24.15;21.92;;;;;;;28.07;100.00;100432.53;5005846;28;20454;-81
2023/06/11 09:53:02;;;;;;;24.50;22.42;;;;;;;27.67;100.00;100441.06;5009494;28;20054;-86
2023/06/11 09:55:34;;;;;;;23.80;21.80;;;;;;;28.66;100.00;100428.94;5009677;28;20042;-86
2023/06/11 09:58:11;;;;;;;22.30;20.55;;;;;;;27.45;100.00;100442.09;5010221;28;20057;-86
2023/06/11 10:00:39;;;;;;;23.42;21.20;;;;;;;27.66;100.00;100444.09;5010054;28;20049;-86
2023/06/11 10:03:11;;;;;;;23.48;20.40;;;;;;;28.23;100.00;100424.56;5010643;28;20053;-78
2023/06/11 10:05:38;;;;;;;23.42;21.08;;;;;;;28.09;100.00;100422.09;5006101;28;20050;-78
2023/06/11 10:08:08;;;;;;;24.65;22.42;;;;;;;28.39;100.00;100419.31;5007951;28;20081;-79
2023/06/11 10:10:40;;;;;;;24.33;21.73;;;;;;;29.17;100.00;100422.19;5004860;28;20129;-86
2023/06/11 10:13:07;;;;;;;;;;;;;;;29.08;100.00;100418.75;5007055;28;20042;-85
2023/06/11 10:15:37;;;;;;;23.95;21.48;;;;;;;28.91;100.00;100411.47;5011055;28;19927;-79
2023/06/11 10:18:13;;;;;;;23.10;20.83;;;;;;;29.28;100.00;100405.34;5010491;28;20060;-86
2023/06/11 10:20:53;;;;;;;24.05;21.75;;;;;;;29.22;100.00;100399.28;5007034;28;20046;-87
2023/06/11 10:23:43;;;;;;;25.05;22.65;;;;;;;29.17;100.00;100400.31;5010338;28;20046;-86
2023/06/11 10:26:11;;;;;;;24.23;21.63;;;;;;;29.21;100.00;100392.22;5004519;28;20049;-79
2023/06/11 10:28:39;;;;;;;24.30;22.17;;;;;;;29.17;100.00;100388.59;5003607;28;20046;-79
2023/06/11 10:31:13;;;;;;;24.20;21.70;;;;;;;29.91;100.00;100383.94;5008743;28;20052;-78
2023/06/11 10:33:44;;;;;;;23.75;21.30;;;;;;;29.54;100.00;100374.94;5005033;28;20431;-86
2023/06/11 10:36:22;;;;;;;23.70;21.45;;;;;;;29.76;100.00;100379.97;5010433;28;20046;-86
2023/06/11 10:38:49;;;;;;;24.58;22.40;;;;;;;27.95;100.00;100380.59;5008953;28;20498;-79
2023/06/11 10:41:28;;;;;;;25.60;23.20;;;;;;;29.66;100.00;100386.69;4658038;28;10000123;-87
2023/06/11 10:43:57;;;;;;;24.40;22.17;;;;;;;29.66;100.00;100381.22;5004758;28;20494;-87
2023/06/11 10:46:24;;;;;;;24.13;21.80;;;;;;;29.56;100.00;100384.41;5006772;28;20058;-86
2023/06/11 10:48:52;;;;;;;23.50;21.17;;;;;;;29.27;100.00;100379.94;5004864;28;20054;-87
2023/06/11 10:51:19;;;;;;;23.83;21.70;;;;;;;29.55;100.00;100360.91;4997740;28;20154;-86
2023/06/11 10:53:55;;;;;;;24.40;21.42;;;;;;;30.11;94.54;100363.81;5004206;28;20053;-86
2023/06/11 10:56:25;;;;;;;24.30;21.80;;;;;;;29.66;99.94;100364.00;5005521;28;20069;-86
2023/06/11 10:58:53;;;;;;;26.27;23.85;;;;;;;28.79;100.00;100356.00;4999661;28;20493;-86
2023/06/11 11:01:21;;;;;;;25.85;23.15;;;;;;;29.67;99.90;100368.34;4995053;28;20133;-86
2023/06/11 11:03:48;;;;;;;24.73;22.63;;;;;;;28.40;100.00;100356.16;5004790;28;20063;-79
2023/06/11 11:06:25;;;;;;;27.30;24.83;;;;;;;28.98;100.00;100359.00;5003933;28;20046;-78
2023/06/11 11:08:55;;;;;;;25.23;22.95;;;;;;;28.13;100.00;100354.78;5003813;28;20076;-79
2023/06/11 11:11:24;;;;;;;24.60;22.27;;;;;;;29.26;100.00;100347.44;5001377;28;20077;-79